• Join FlightAware (Why Join?)
  • Login
  • US Flag 
01:26PM EDT


 

Airport Tracker/Info


-or-


 

Live Flight TrackerFlight Track Log ✈ SWA1044 ✈ 11-Apr-2013 ✈ KMCI - KMSY

Flight Track Log - Related Links

Times and Time Zones

All times are in EDT time to prevent confusion due to time zone crossing. See the SWA1044 flight status page for this flight to view local times or setup timezone preferences in your user account.

Time Position Orientation Groundspeed Altitude Reporting Facility
EDT Latitude Longitude Course Direction KTS MPH feet Rate Location/Type
09:43AM 39.2833 -94.7167 270° West 143 165 1,600  Level Kansas City TRACON
09:43AM 39.2833 -94.7500 270° West 149 171 2,500 1,800 Climbing Kansas City TRACON
09:44AM 39.2519 -94.7764 213° Southwest 201 231 4,500 2,160 Climbing Kansas City Center
09:45AM 39.1767 -94.7519 166° South 249 287 7,300 3,120 Climbing Kansas City Center
09:47AM 39.1064 -94.7281 165° South 267 307 10,900 2,940 Climbing Kansas City Center
09:48AM 39.0244 -94.7017 166° South 320 368 13,300 2,880 Climbing Kansas City Center
09:49AM 38.9208 -94.6664 165° South 343 395 16,800 3,060 Climbing Kansas City Center
09:50AM 38.8283 -94.6350 165° South 357 411 19,700 3,180 Climbing Kansas City Center
09:51AM 38.7175 -94.5986 166° South 364 419 23,500 3,480 Climbing Kansas City Center
09:52AM 38.6311 -94.5753 168° South 331 381 26,900 2,520 Climbing Kansas City Center
09:53AM 38.5456 -94.5564 170° South 326 375 28,700 1,860 Climbing Kansas City Center
09:54AM 38.4431 -94.5317 169° South 336 387 30,800 1,680 Climbing Kansas City Center
09:55AM 38.3539 -94.5083 168° South 342 394 32,200 1,020 Climbing Kansas City Center
09:56AM 38.2447 -94.4742 166° South 357 411 33,000 360 Climbing Kansas City Center
09:57AM 38.1556 -94.4103 151° Southeast 375 432 33,000  Level Kansas City Center
09:58AM 38.0503 -94.3383 152° Southeast 383 441 33,000 420 Level Kansas City Center
09:59AM 37.9594 -94.2778 152° Southeast 384 442 33,900 780 Climbing Kansas City Center
10:00AM 37.8619 -94.2133 152° Southeast 399 459 34,700 480 Climbing Kansas City Center
10:01AM 37.7611 -94.1464 152° Southeast 406 467 35,000 120 Climbing Kansas City Center
10:02AM 37.6417 -94.0658 152° Southeast 405 466 35,000  Level Kansas City Center
10:03AM 37.5419 -94.0000 152° Southeast 403 464 35,000  Level Kansas City Center
10:04AM 37.4436 -93.9358 153° Southeast 401 461 35,000 540 Level Kansas City Center
10:05AM 37.3453 -93.8706 152° Southeast 400 460 36,200 960 Climbing Kansas City Center
10:06AM 37.2475 -93.8064 152° Southeast 397 457 37,000 360 Climbing Kansas City Center
10:07AM 37.1475 -93.7408 152° Southeast 400 460 37,000  Level Kansas City Center
10:08AM 37.0494 -93.6758 152° Southeast 400 460 37,000  Level Kansas City Center
10:09AM 36.9325 -93.6000 153° Southeast 396 456 37,000  Level Kansas City Center
10:10AM 36.8381 -93.5389 153° Southeast 397 457 37,000  Level Kansas City Center
10:11AM 36.7433 -93.4781 153° Southeast 389 448 37,000  Level Kansas City Center
10:12AM 36.6494 -93.4169 152° Southeast 383 441 37,000  Level Kansas City Center
10:13AM 36.5728 -93.3669 152° Southeast 392 451 37,000  Level Memphis Center
10:14AM 36.4781 -93.3094 154° Southeast 382 440 37,000  Level Memphis Center
10:15AM 36.3817 -93.2492 153° Southeast 382 440 37,000  Level Memphis Center
10:16AM 36.2933 -93.1894 151° Southeast 377 434 37,000  Level Memphis Center
10:17AM 36.2008 -93.1269 151° Southeast 377 434 37,000  Level Memphis Center
10:18AM 36.1083 -93.0750 156° South 377 434 37,000  Level Memphis Center
10:19AM 36.0158 -93.0131 152° Southeast 377 434 37,000  Level Memphis Center
10:20AM 35.9211 -92.9511 152° Southeast 377 434 37,000  Level Memphis Center
10:21AM 35.8306 -92.8944 153° Southeast 377 434 37,000  Level Memphis Center
10:22AM 35.7358 -92.8328 152° Southeast 377 434 37,000  Level Memphis Center
10:23AM 35.6431 -92.7789 155° Southeast 377 434 37,000  Level Memphis Center
10:24AM 35.5400 -92.7144 153° Southeast 377 434 37,000  Level Memphis Center
10:25AM 35.4472 -92.6533 152° Southeast 382 440 37,000  Level Memphis Center
10:26AM 35.3564 -92.6000 154° Southeast 377 434 37,000 300 Level Memphis Center
10:27AM 35.2636 -92.5414 153° Southeast 377 434 37,700 780 Climbing Memphis Center
10:28AM 35.1750 -92.4858 153° Southeast 377 434 38,600 600 Climbing Memphis Center
10:29AM 35.0758 -92.4275 154° Southeast 382 440 39,000 180 Climbing Memphis Center
10:30AM 34.9831 -92.3644 151° Southeast 382 440 39,000  Level Memphis Center
10:31AM 34.8858 -92.3089 155° Southeast 382 440 39,000  Level Memphis Center
10:32AM 34.7928 -92.2511 153° Southeast 382 440 39,000  Level Memphis Center
10:33AM 34.6997 -92.1936 153° Southeast 382 440 39,000  Level Memphis Center
10:34AM 34.6067 -92.1386 154° Southeast 382 440 39,000  Level Memphis Center
10:35AM 34.5136 -92.0836 154° Southeast 377 434 39,000  Level Memphis Center
10:36AM 34.4203 -92.0289 154° Southeast 377 434 39,000  Level Memphis Center
10:37AM 34.3272 -91.9744 154° Southeast 377 434 39,000  Level Memphis Center
10:38AM 34.2361 -91.9200 154° Southeast 377 434 39,000  Level Memphis Center
10:39AM 34.1469 -91.8656 153° Southeast 372 428 39,000  Level Memphis Center
10:40AM 34.0681 -91.8217 155° Southeast 365 420 39,000  Level Memphis Center
10:41AM 33.9792 -91.7675 153° Southeast 360 414 39,000  Level Memphis Center
10:42AM 33.8753 -91.7133 157° South 372 428 39,000  Level Memphis Center
10:43AM 33.7736 -91.6492 152° Southeast 378 435 39,000  Level Memphis Center
10:44AM 33.6761 -91.5978 156° South 378 435 39,000  Level Memphis Center
10:45AM 33.5931 -91.5467 153° Southeast 373 429 39,000  Level Memphis Center
10:46AM 33.4997 -91.4931 154° Southeast 378 435 39,000  Level Memphis Center
10:47AM 33.4083 -91.4372 153° Southeast 378 435 39,000  Level Memphis Center
10:48AM 33.3108 -91.3864 156° South 378 435 39,000  Level Memphis Center
10:49AM 33.2150 -91.3306 154° Southeast 378 435 39,000  Level Memphis Center
10:50AM 33.1175 -91.2750 154° Southeast 383 441 39,000  Level Memphis Center
10:51AM 33.0175 -91.2194 155° Southeast 383 441 39,000  Level Memphis Center
10:52AM 32.9178 -91.1592 153° Southeast 393 452 39,000  Level Memphis Center
10:53AM 32.8158 -91.1039 155° Southeast 398 458 39,000  Level Memphis Center
10:54AM 32.7139 -91.0436 154° Southeast 398 458 39,000  Level Memphis Center
10:55AM 32.6139 -90.9886 155° Southeast 403 464 39,000  Level Memphis Center
10:56AM 32.5119 -90.9314 155° Southeast 396 456 39,000 -300 Level Memphis Center
10:57AM 32.4119 -90.8717 153° Southeast 396 456 38,400 -900 Descending Memphis Center
10:58AM 32.2994 -90.8094 155° Southeast 404 465 37,300 -1,140 Descending Memphis Center
10:59AM 32.1975 -90.7525 155° Southeast 404 465 36,200 -1,800 Descending Memphis Center
11:00AM 32.0911 -90.6908 154° Southeast 404 465 33,800 -2,100 Descending Memphis Center
11:00AM 32.0861 -90.6883 157° South 418 481 33,600 -2,460 Descending Houston Center
11:01AM 31.9614 -90.6178 154° Southeast 416 479 30,700 -2,280 Descending Houston Center
11:02AM 31.8589 -90.5622 155° Southeast 410 472 28,900 -900 Descending Houston Center
11:03AM 31.7594 -90.5081 155° Southeast 398 458 28,900 -480 Level Houston Center
11:04AM 31.6647 -90.4553 155° Southeast 384 442 28,000 -480 Descending Houston Center
11:05AM 31.5733 -90.4061 155° Southeast 368 423 28,000 -540 Level Houston Center
11:06AM 31.4642 -90.3453 155° Southeast 362 417 27,000 -960 Descending Houston Center
11:08AM 31.3750 -90.2967 155° Southeast 357 411 26,100 -1,200 Descending Houston Center
11:09AM 31.2886 -90.2556 158° South 338 389 24,600 -1,620 Descending Houston Center
11:10AM 31.2014 -90.2508 177° South 316 364 22,800 -1,800 Descending Houston Center
11:11AM 31.1161 -90.2442 176° South 309 356 21,000 -1,500 Descending Houston Center
11:12AM 31.0239 -90.2372 176° South 327 376 19,700 -1,920 Descending Houston Center
11:13AM 30.9178 -90.2289 176° South 320 368 17,100 -2,400 Descending Houston Center
11:14AM 30.8481 -90.2089 166° South 325 374 15,300 -2,340 Descending Houston Center
11:15AM 30.7514 -90.1775 164° South 307 353 12,300 -2,400 Descending Houston Center
11:15AM 30.7217 -90.1753 176° South 296 341 11,700 -1,680 Descending Houston Center
11:16AM 30.6703 -90.1669 172° South 297 342 10,600 -1,740 Descending Houston Center
11:16AM 30.6308 -90.1453 155° Southeast 295 339 9,800 -1,020 Descending Houston Center
11:17AM 30.5969 -90.1253 153° Southeast 295 339 9,600 -840 Descending Houston Center
11:17AM 30.5567 -90.1050 157° South 266 306 8,900 -1,200 Descending Houston Center
11:18AM 30.5300 -90.0936 160° South 279 321 8,400 -1,140 Descending Houston Center
11:18AM 30.4872 -90.0958 183° South 243 280 7,800 -900 Descending Houston Center
11:19AM 30.4519 -90.0983 183° South 247 284 7,500 -420 Descending Houston Center
11:19AM 30.4292 -90.1078 200° South 206 237 7,400 -420 Descending Houston Center
11:20AM 30.4019 -90.1175 197° South 215 247 7,100 -600 Descending Houston Center
11:20AM 30.3858 -90.1242 200° South 169 194 6,900 -780 Descending Houston Center
11:21AM 30.3594 -90.1328 196° South 181 208 6,300 -1,020 Descending Houston Center
11:21AM 30.3444 -90.1378 196° South 148 170 5,900 -1,080 Descending Houston Center
11:22AM 30.3192 -90.1447 193° South 160 184 5,200 -780 Descending Houston Center
11:23AM 30.2658 -90.1628 196° South 153 176 4,500 -780 Descending Houston Center
11:24AM 30.2303 -90.1736 195° South 152 175 3,700 -960 Descending Houston Center
11:25AM 30.1914 -90.1850 194° South 140 161 2,700 -840 Descending Houston Center
11:26AM 30.1519 -90.1986 197° South 139 160 2,000 -360 Descending Houston Center
11:27AM 30.1192 -90.2086 195° South 139 160 2,000 -120 Level Houston Center
11:28AM 30.0878 -90.2181 195° South 116 133 1,800 -480 Descending Houston Center
11:29AM 30.0547 -90.2292 196° South 112 129 1,200 -720 Descending Houston Center
11:30AM 30.0217 -90.2400 196° South 126 145 400 -840 Descending Houston Center
11:32AM 29.9833 -90.2500 190° South  Level FlightAware Approximate
11:39AM 29.9934 -90.2580 190° South  Level Estimated
11:40AM 29.9934 -90.2580 190° South  Level Estimated
11:41AM 29.9934 -90.2580 190° South  Level Estimated